sensor_id;sensor_type;location;lat;lon;timestamp;temperature;humidity
27439;DHT22;14887;51.252;7.470;2023-08-30T11:55:00;15.20;99.90
27439;DHT22;14887;51.252;7.470;2023-08-30T11:57:26;15.10;99.90
27439;DHT22;14887;51.252;7.470;2023-08-30T11:59:53;14.90;99.90
27439;DHT22;14887;51.252;7.470;2023-08-30T12:02:18;14.90;1.00
27439;DHT22;14887;51.252;7.470;2023-08-30T12:04:45;14.60;1.00
27439;DHT22;14887;51.252;7.470;2023-08-30T12:07:22;14.40;1.00
27439;DHT22;14887;51.252;7.470;2023-08-30T12:09:48;14.30;1.00
27439;DHT22;14887;51.252;7.470;2023-08-30T12:12:13;14.20;1.00
27439;DHT22;14887;51.252;7.470;2023-08-30T12:14:39;14.10;1.00
27439;DHT22;14887;51.252;7.470;2023-08-30T12:17:05;14.00;1.00
27439;DHT22;14887;51.252;7.470;2023-08-30T12:19:34;14.00;1.00
27439;DHT22;14887;51.252;7.470;2023-08-30T12:22:06;13.90;1.00
27439;DHT22;14887;51.252;7.470;2023-08-30T12:24:44;13.80;1.00
27439;DHT22;14887;51.252;7.470;2023-08-30T12:27:10;13.80;1.00
27439;DHT22;14887;51.252;7.470;2023-08-30T12:29:36;13.70;1.00
27439;DHT22;14887;51.252;7.470;2023-08-30T12:32:02;13.80;1.00
27439;DHT22;14887;51.252;7.470;2023-08-30T12:34:28;13.90;1.00
27439;DHT22;14887;51.252;7.470;2023-08-30T12:36:53;13.80;1.00
27439;DHT22;14887;51.252;7.470;2023-08-30T12:39:19;13.80;1.00
27439;DHT22;14887;51.252;7.470;2023-08-30T12:41:45;13.70;1.00
27439;DHT22;14887;51.252;7.470;2023-08-30T12:44:10;13.50;1.00
27439;DHT22;14887;51.252;7.470;2023-08-30T12:46:36;13.60;1.00
27439;DHT22;14887;51.252;7.470;2023-08-30T12:49:02;13.60;1.00
27439;DHT22;14887;51.252;7.470;2023-08-30T12:51:27;13.70;1.00
27439;DHT22;14887;51.252;7.470;2023-08-30T12:53:54;13.60;1.00
27439;DHT22;14887;51.252;7.470;2023-08-30T12:56:20;13.50;1.00
27439;DHT22;14887;51.252;7.470;2023-08-30T12:58:45;13.50;1.00
27439;DHT22;14887;51.252;7.470;2023-08-30T13:01:11;13.50;1.00
27439;DHT22;14887;51.252;7.470;2023-08-30T13:03:37;13.50;1.00
27439;DHT22;14887;51.252;7.470;2023-08-30T13:06:02;13.60;1.00
27439;DHT22;14887;51.252;7.470;2023-08-30T13:08:29;13.60;1.00
27439;DHT22;14887;51.252;7.470;2023-08-30T13:10:55;13.60;1.00
27439;DHT22;14887;51.252;7.470;2023-08-30T13:13:21;13.70;1.00
27439;DHT22;14887;51.252;7.470;2023-08-30T13:15:47;13.80;1.00
27439;DHT22;14887;51.252;7.470;2023-08-30T13:18:14;13.80;1.00
27439;DHT22;14887;51.252;7.470;2023-08-30T13:20:41;13.80;1.00
27439;DHT22;14887;51.252;7.470;2023-08-30T13:23:07;13.90;1.00
27439;DHT22;14887;51.252;7.470;2023-08-30T13:25:33;13.90;1.00
27439;DHT22;14887;51.252;7.470;2023-08-30T13:27:59;13.80;1.00
27439;DHT22;14887;51.252;7.470;2023-08-30T13:30:25;13.80;1.00
27439;DHT22;14887;51.252;7.470;2023-08-30T13:32:50;13.80;1.00
27439;DHT22;14887;51.252;7.470;2023-08-30T13:35:16;13.70;1.00
27439;DHT22;14887;51.252;7.470;2023-08-30T13:37:41;13.60;1.00
27439;DHT22;14887;51.252;7.470;2023-08-30T13:40:08;13.50;1.00
27439;DHT22;14887;51.252;7.470;2023-08-30T13:42:33;13.50;1.00
27439;DHT22;14887;51.252;7.470;2023-08-30T13:44:59;13.50;1.00
27439;DHT22;14887;51.252;7.470;2023-08-30T13:47:25;13.40;1.00
27439;DHT22;14887;51.252;7.470;2023-08-30T13:49:51;13.40;1.00
27439;DHT22;14887;51.252;7.470;2023-08-30T13:52:17;13.40;1.00
27439;DHT22;14887;51.252;7.470;2023-08-30T13:54:43;13.30;1.00
27439;DHT22;14887;51.252;7.470;2023-08-30T13:57:09;13.30;1.00
27439;DHT22;14887;51.252;7.470;2023-08-30T13:59:34;13.40;1.00
27439;DHT22;14887;51.252;7.470;2023-08-30T14:02:04;13.40;1.00
27439;DHT22;14887;51.252;7.470;2023-08-30T14:04:30;13.50;1.00
27439;DHT22;14887;51.252;7.470;2023-08-30T14:06:58;13.40;1.00
27439;DHT22;14887;51.252;7.470;2023-08-30T14:09:24;13.40;1.00
27439;DHT22;14887;51.252;7.470;2023-08-30T14:11:49;13.50;1.00
27439;DHT22;14887;51.252;7.470;2023-08-30T14:14:15;13.40;1.00
27439;DHT22;14887;51.252;7.470;2023-08-30T14:16:41;13.30;1.00
27439;DHT22;14887;51.252;7.470;2023-08-30T14:19:07;13.30;1.00
27439;DHT22;14887;51.252;7.470;2023-08-30T14:21:33;13.30;1.00
27439;DHT22;14887;51.252;7.470;2023-08-30T14:23:58;13.40;1.00
27439;DHT22;14887;51.252;7.470;2023-08-30T14:26:25;13.60;1.80
27439;DHT22;14887;51.252;7.470;2023-08-30T14:28:51;13.70;4.80
27439;DHT22;14887;51.252;7.470;2023-08-30T14:31:16;13.70;8.10
27439;DHT22;14887;51.252;7.470;2023-08-30T14:33:43;13.80;4.70
27439;DHT22;14887;51.252;7.470;2023-08-30T14:36:13;13.80;3.30
27439;DHT22;14887;51.252;7.470;2023-08-30T14:38:39;13.80;1.00
27439;DHT22;14887;51.252;7.470;2023-08-30T14:41:06;13.60;1.00
27439;DHT22;14887;51.252;7.470;2023-08-30T14:43:32;13.50;1.00
27439;DHT22;14887;51.252;7.470;2023-08-30T14:46:07;13.40;1.00
27439;DHT22;14887;51.252;7.470;2023-08-30T14:48:33;13.10;1.00
27439;DHT22;14887;51.252;7.470;2023-08-30T14:51:04;13.00;1.00
27439;DHT22;14887;51.252;7.470;2023-08-30T14:53:29;13.00;1.00
27439;DHT22;14887;51.252;7.470;2023-08-30T14:55:55;12.90;1.00
27439;DHT22;14887;51.252;7.470;2023-08-30T14:58:27;12.90;1.00
27439;DHT22;14887;51.252;7.470;2023-08-30T15:00:56;12.70;1.00
27439;DHT22;14887;51.252;7.470;2023-08-30T15:03:27;12.70;1.00
27439;DHT22;14887;51.252;7.470;2023-08-30T15:06:18;12.60;1.00
27439;DHT22;14887;51.252;7.470;2023-08-30T15:08:56;12.60;1.00
27439;DHT22;14887;51.252;7.470;2023-08-30T15:11:46;12.60;1.00
27439;DHT22;14887;51.252;7.470;2023-08-30T15:14:37;12.60;1.00
27439;DHT22;14887;51.252;7.470;2023-08-30T15:17:16;12.50;1.00
27439;DHT22;14887;51.252;7.470;2023-08-30T15:19:45;12.50;1.00
27439;DHT22;14887;51.252;7.470;2023-08-30T15:22:34;12.50;1.00
27439;DHT22;14887;51.252;7.470;2023-08-30T15:25:23;12.50;1.00
27439;DHT22;14887;51.252;7.470;2023-08-30T15:28:08;12.50;1.00
27439;DHT22;14887;51.252;7.470;2023-08-30T15:31:06;12.40;1.00
27439;DHT22;14887;51.252;7.470;2023-08-30T15:33:42;12.40;1.00
27439;DHT22;14887;51.252;7.470;2023-08-30T15:36:20;12.30;1.00
27439;DHT22;14887;51.252;7.470;2023-08-30T15:39:21;12.30;1.00
27439;DHT22;14887;51.252;7.470;2023-08-30T15:42:21;12.30;1.00
27439;DHT22;14887;51.252;7.470;2023-08-30T15:44:57;12.40;1.00
27439;DHT22;14887;51.252;7.470;2023-08-30T15:47:28;12.60;1.00
27439;DHT22;14887;51.252;7.470;2023-08-30T15:50:04;12.60;1.00
27439;DHT22;14887;51.252;7.470;2023-08-30T15:52:49;12.80;5.30
27439;DHT22;14887;51.252;7.470;2023-08-30T15:55:37;12.90;11.30
27439;DHT22;14887;51.252;7.470;2023-08-30T15:58:13;12.90;15.60
27439;DHT22;14887;51.252;7.470;2023-08-30T16:00:42;13.00;17.20
27439;DHT22;14887;51.252;7.470;2023-08-30T16:03:12;13.00;17.50
27439;DHT22;14887;51.252;7.470;2023-08-30T16:05:44;13.10;16.50
27439;DHT22;14887;51.252;7.470;2023-08-30T16:08:27;13.20;18.10
27439;DHT22;14887;51.252;7.470;2023-08-30T16:11:04;14.10;27.80
27439;DHT22;14887;51.252;7.470;2023-08-30T16:13:45;15.00;64.00
27439;DHT22;14887;51.252;7.470;2023-08-30T16:16:14;15.40;5.30
27439;DHT22;14887;51.252;7.470;2023-08-30T16:18:45;15.40;1.00
27439;DHT22;14887;51.252;7.470;2023-08-30T16:21:12;15.70;1.00
27439;DHT22;14887;51.252;7.470;2023-08-30T16:23:46;16.30;1.00
27439;DHT22;14887;51.252;7.470;2023-08-30T16:26:39;17.10;1.00
27439;DHT22;14887;51.252;7.470;2023-08-30T16:29:30;18.00;99.90
27439;DHT22;14887;51.252;7.470;2023-08-30T16:32:16;18.20;99.90
27439;DHT22;14887;51.252;7.470;2023-08-30T16:34:58;17.80;1.00
27439;DHT22;14887;51.252;7.470;2023-08-30T16:37:39;16.70;99.90
27439;DHT22;14887;51.252;7.470;2023-08-30T16:40:10;15.90;99.90
27439;DHT22;14887;51.252;7.470;2023-08-30T16:42:44;15.20;1.00
27439;DHT22;14887;51.252;7.470;2023-08-30T16:45:15;14.90;1.00
27439;DHT22;14887;51.252;7.470;2023-08-30T16:47:41;14.60;1.00
27439;DHT22;14887;51.252;7.470;2023-08-30T16:50:08;14.50;1.00
27439;DHT22;14887;51.252;7.470;2023-08-30T16:52:34;14.40;1.00
27439;DHT22;14887;51.252;7.470;2023-08-30T16:55:00;14.40;1.00
27439;DHT22;14887;51.252;7.470;2023-08-30T16:57:26;14.30;1.00
27439;DHT22;14887;51.252;7.470;2023-08-30T16:59:55;14.20;1.00
27439;DHT22;14887;51.252;7.470;2023-08-30T17:02:20;14.20;1.00
27439;DHT22;14887;51.252;7.470;2023-08-30T17:04:50;14.10;1.00
27439;DHT22;14887;51.252;7.470;2023-08-30T17:07:34;14.00;1.00
27439;DHT22;14887;51.252;7.470;2023-08-30T17:10:05;13.80;1.00
27439;DHT22;14887;51.252;7.470;2023-08-30T17:12:58;13.60;1.00
27439;DHT22;14887;51.252;7.470;2023-08-30T17:15:30;13.60;1.00
27439;DHT22;14887;51.252;7.470;2023-08-30T17:17:56;13.60;1.00
27439;DHT22;14887;51.252;7.470;2023-08-30T17:20:22;13.50;1.00
27439;DHT22;14887;51.252;7.470;2023-08-30T17:22:47;13.50;1.00
27439;DHT22;14887;51.252;7.470;2023-08-30T17:25:13;13.40;1.00
27439;DHT22;14887;51.252;7.470;2023-08-30T17:27:39;13.40;1.00
27439;DHT22;14887;51.252;7.470;2023-08-30T17:30:09;13.30;1.00
27439;DHT22;14887;51.252;7.470;2023-08-30T17:33:00;13.20;1.00
27439;DHT22;14887;51.252;7.470;2023-08-30T17:36:08;13.20;1.00
27439;DHT22;14887;51.252;7.470;2023-08-30T17:38:52;13.00;1.00
27439;DHT22;14887;51.252;7.470;2023-08-30T17:41:37;12.90;1.00
27439;DHT22;14887;51.252;7.470;2023-08-30T17:44:30;12.90;1.00
27439;DHT22;14887;51.252;7.470;2023-08-30T17:47:18;12.80;1.00
27439;DHT22;14887;51.252;7.470;2023-08-30T17:49:59;12.70;1.00
27439;DHT22;14887;51.252;7.470;2023-08-30T17:52:37;12.70;1.00
27439;DHT22;14887;51.252;7.470;2023-08-30T17:55:32;12.70;1.00
27439;DHT22;14887;51.252;7.470;2023-08-30T17:58:07;12.70;1.00
27439;DHT22;14887;51.252;7.470;2023-08-30T18:00:56;12.70;1.00
27439;DHT22;14887;51.252;7.470;2023-08-30T18:03:57;12.80;1.00
27439;DHT22;14887;51.252;7.470;2023-08-30T18:07:00;12.70;1.00
27439;DHT22;14887;51.252;7.470;2023-08-30T18:10:16;12.70;1.00
27439;DHT22;14887;51.252;7.470;2023-08-30T18:13:21;12.60;1.00
27439;DHT22;14887;51.252;7.470;2023-08-30T18:15:57;12.60;1.00
27439;DHT22;14887;51.252;7.470;2023-08-30T18:18:55;12.50;1.00
27439;DHT22;14887;51.252;7.470;2023-08-30T18:22:03;12.40;1.00
27439;DHT22;14887;51.252;7.470;2023-08-30T18:27:34;12.30;1.00
27439;DHT22;14887;51.252;7.470;2023-08-30T18:29:59;12.30;1.00
27439;DHT22;14887;51.252;7.470;2023-08-30T18:32:25;12.30;1.00
27439;DHT22;14887;51.252;7.470;2023-08-30T18:34:51;12.20;1.00
27439;DHT22;14887;51.252;7.470;2023-08-30T18:37:16;12.20;1.00
27439;DHT22;14887;51.252;7.470;2023-08-30T18:39:42;12.20;1.00
27439;DHT22;14887;51.252;7.470;2023-08-30T18:42:07;12.20;1.00
27439;DHT22;14887;51.252;7.470;2023-08-30T18:44:33;12.20;1.00
27439;DHT22;14887;51.252;7.470;2023-08-30T18:46:58;12.30;1.00
27439;DHT22;14887;51.252;7.470;2023-08-30T18:49:24;12.30;2.20
27439;DHT22;14887;51.252;7.470;2023-08-30T18:51:50;12.40;4.20
27439;DHT22;14887;51.252;7.470;2023-08-30T18:54:15;12.40;9.80
27439;DHT22;14887;51.252;7.470;2023-08-30T18:56:41;12.50;12.50
27439;DHT22;14887;51.252;7.470;2023-08-30T18:59:06;12.40;20.90
27439;DHT22;14887;51.252;7.470;2023-08-30T19:01:33;12.50;21.80
27439;DHT22;14887;51.252;7.470;2023-08-30T19:04:00;12.50;19.50
27439;DHT22;14887;51.252;7.470;2023-08-30T19:06:26;12.50;17.20
27439;DHT22;14887;51.252;7.470;2023-08-30T19:08:52;12.60;17.40
27439;DHT22;14887;51.252;7.470;2023-08-30T19:11:18;12.50;16.20
27439;DHT22;14887;51.252;7.470;2023-08-30T19:13:44;12.50;13.70
27439;DHT22;14887;51.252;7.470;2023-08-30T19:16:11;12.50;13.60
27439;DHT22;14887;51.252;7.470;2023-08-30T19:18:36;12.50;14.50
27439;DHT22;14887;51.252;7.470;2023-08-30T19:21:02;12.50;14.60
27439;DHT22;14887;51.252;7.470;2023-08-30T19:23:30;12.50;14.40
27439;DHT22;14887;51.252;7.470;2023-08-30T19:25:56;12.50;14.70
27439;DHT22;14887;51.252;7.470;2023-08-30T19:28:22;12.50;15.20
27439;DHT22;14887;51.252;7.470;2023-08-30T19:30:50;12.40;13.40
27439;DHT22;14887;51.252;7.470;2023-08-30T19:33:16;12.40;12.30
27439;DHT22;14887;51.252;7.470;2023-08-30T19:35:42;12.40;11.40
27439;DHT22;14887;51.252;7.470;2023-08-30T19:38:07;12.40;10.40
27439;DHT22;14887;51.252;7.470;2023-08-30T19:40:33;12.20;9.70
27439;DHT22;14887;51.252;7.470;2023-08-30T19:42:59;12.20;8.40
27439;DHT22;14887;51.252;7.470;2023-08-30T19:45:25;12.20;7.70
27439;DHT22;14887;51.252;7.470;2023-08-30T19:47:50;12.00;5.70
27439;DHT22;14887;51.252;7.470;2023-08-30T19:50:16;12.00;3.50
27439;DHT22;14887;51.252;7.470;2023-08-30T19:52:48;11.90;1.00
27439;DHT22;14887;51.252;7.470;2023-08-30T19:55:14;11.80;1.00
27439;DHT22;14887;51.252;7.470;2023-08-30T19:57:40;11.80;1.00
27439;DHT22;14887;51.252;7.470;2023-08-30T20:00:08;11.70;1.00
27439;DHT22;14887;51.252;7.470;2023-08-30T20:02:38;11.70;1.00
27439;DHT22;14887;51.252;7.470;2023-08-30T20:05:04;11.70;1.00
27439;DHT22;14887;51.252;7.470;2023-08-30T20:07:30;11.60;1.00
27439;DHT22;14887;51.252;7.470;2023-08-30T20:09:56;11.50;1.00
27439;DHT22;14887;51.252;7.470;2023-08-30T20:12:23;11.40;1.00
27439;DHT22;14887;51.252;7.470;2023-08-30T20:14:48;11.50;1.00
27439;DHT22;14887;51.252;7.470;2023-08-30T20:17:14;11.40;1.00
27439;DHT22;14887;51.252;7.470;2023-08-30T20:19:39;11.40;1.00
27439;DHT22;14887;51.252;7.470;2023-08-30T20:22:05;11.40;1.00
27439;DHT22;14887;51.252;7.470;2023-08-30T20:24:30;11.30;1.00
27439;DHT22;14887;51.252;7.470;2023-08-30T20:26:56;11.30;1.00
27439;DHT22;14887;51.252;7.470;2023-08-30T20:29:22;11.40;1.00
27439;DHT22;14887;51.252;7.470;2023-08-30T20:31:48;11.30;1.00
27439;DHT22;14887;51.252;7.470;2023-08-30T20:34:14;11.30;1.00
27439;DHT22;14887;51.252;7.470;2023-08-30T20:36:40;11.30;1.00
27439;DHT22;14887;51.252;7.470;2023-08-30T20:39:06;11.20;1.00
27439;DHT22;14887;51.252;7.470;2023-08-30T20:41:32;11.20;1.00
27439;DHT22;14887;51.252;7.470;2023-08-30T20:43:57;11.20;1.00
27439;DHT22;14887;51.252;7.470;2023-08-30T20:46:24;11.20;1.00
27439;DHT22;14887;51.252;7.470;2023-08-30T20:48:49;11.20;1.00
27439;DHT22;14887;51.252;7.470;2023-08-30T20:51:15;11.20;1.00
27439;DHT22;14887;51.252;7.470;2023-08-30T20:53:41;11.20;1.00
27439;DHT22;14887;51.252;7.470;2023-08-30T20:56:09;11.20;1.00
27439;DHT22;14887;51.252;7.470;2023-08-30T20:58:38;11.20;1.10
27439;DHT22;14887;51.252;7.470;2023-08-30T21:01:07;11.20;1.90
27439;DHT22;14887;51.252;7.470;2023-08-30T21:03:34;11.20;3.30
27439;DHT22;14887;51.252;7.470;2023-08-30T21:06:00;11.10;2.90
27439;DHT22;14887;51.252;7.470;2023-08-30T21:08:25;11.10;1.40
27439;DHT22;14887;51.252;7.470;2023-08-30T21:10:51;11.00;1.00
27439;DHT22;14887;51.252;7.470;2023-08-30T21:13:17;11.00;1.00
27439;DHT22;14887;51.252;7.470;2023-08-30T21:15:43;10.90;1.00
27439;DHT22;14887;51.252;7.470;2023-08-30T21:18:09;10.90;1.00
27439;DHT22;14887;51.252;7.470;2023-08-30T21:20:35;10.90;1.00
27439;DHT22;14887;51.252;7.470;2023-08-30T21:23:01;10.90;1.00
27439;DHT22;14887;51.252;7.470;2023-08-30T21:25:39;10.80;1.00
27439;DHT22;14887;51.252;7.470;2023-08-30T21:28:05;10.80;1.00
27439;DHT22;14887;51.252;7.470;2023-08-30T21:30:39;10.80;1.00
27439;DHT22;14887;51.252;7.470;2023-08-30T21:33:06;10.80;1.00
27439;DHT22;14887;51.252;7.470;2023-08-30T21:35:42;10.80;1.00
27439;DHT22;14887;51.252;7.470;2023-08-30T21:38:09;10.90;1.00
27439;DHT22;14887;51.252;7.470;2023-08-30T21:40:39;11.00;1.00
27439;DHT22;14887;51.252;7.470;2023-08-30T21:43:09;11.10;1.00
27439;DHT22;14887;51.252;7.470;2023-08-30T21:45:35;11.10;1.30
27439;DHT22;14887;51.252;7.470;2023-08-30T21:48:03;11.10;3.30
27439;DHT22;14887;51.252;7.470;2023-08-30T21:50:29;11.10;4.40
27439;DHT22;14887;51.252;7.470;2023-08-30T21:52:54;11.10;5.20
27439;DHT22;14887;51.252;7.470;2023-08-30T21:55:20;11.10;5.60
27439;DHT22;14887;51.252;7.470;2023-08-30T21:57:47;11.00;5.90
27439;DHT22;14887;51.252;7.470;2023-08-30T22:00:12;11.00;5.20
27439;DHT22;14887;51.252;7.470;2023-08-30T22:02:41;10.90;3.60
27439;DHT22;14887;51.252;7.470;2023-08-30T22:05:08;11.00;3.70
27439;DHT22;14887;51.252;7.470;2023-08-30T22:07:36;10.90;3.70
27439;DHT22;14887;51.252;7.470;2023-08-30T22:10:02;10.90;3.10
27439;DHT22;14887;51.252;7.470;2023-08-30T22:12:28;10.80;2.50
27439;DHT22;14887;51.252;7.470;2023-08-30T22:14:54;10.70;1.90
27439;DHT22;14887;51.252;7.470;2023-08-30T22:17:19;10.70;1.00
27439;DHT22;14887;51.252;7.470;2023-08-30T22:19:46;10.70;1.00
27439;DHT22;14887;51.252;7.470;2023-08-30T22:22:11;10.70;1.10
27439;DHT22;14887;51.252;7.470;2023-08-30T22:24:39;10.70;2.50
27439;DHT22;14887;51.252;7.470;2023-08-30T22:27:05;10.70;3.40
27439;DHT22;14887;51.252;7.470;2023-08-30T22:29:30;10.60;2.50
27439;DHT22;14887;51.252;7.470;2023-08-30T22:31:56;10.50;1.90
27439;DHT22;14887;51.252;7.470;2023-08-30T22:34:22;10.50;1.00
27439;DHT22;14887;51.252;7.470;2023-08-30T22:36:47;10.50;1.00
27439;DHT22;14887;51.252;7.470;2023-08-30T22:39:13;10.40;1.00
27439;DHT22;14887;51.252;7.470;2023-08-30T22:41:38;10.40;1.00
27439;DHT22;14887;51.252;7.470;2023-08-30T22:44:04;10.40;1.00
27439;DHT22;14887;51.252;7.470;2023-08-30T22:46:32;10.40;1.00
27439;DHT22;14887;51.252;7.470;2023-08-30T22:49:02;10.40;1.00
27439;DHT22;14887;51.252;7.470;2023-08-30T22:51:29;10.40;1.00
27439;DHT22;14887;51.252;7.470;2023-08-30T22:53:54;10.30;1.00
27439;DHT22;14887;51.252;7.470;2023-08-30T22:56:21;10.30;1.00
27439;DHT22;14887;51.252;7.470;2023-08-30T22:58:47;10.30;1.00
27439;DHT22;14887;51.252;7.470;2023-08-30T23:01:12;10.30;1.00
27439;DHT22;14887;51.252;7.470;2023-08-30T23:03:38;10.20;1.00
27439;DHT22;14887;51.252;7.470;2023-08-30T23:06:03;10.20;1.00
27439;DHT22;14887;51.252;7.470;2023-08-30T23:08:29;10.20;1.00
27439;DHT22;14887;51.252;7.470;2023-08-30T23:10:55;10.10;1.00
27439;DHT22;14887;51.252;7.470;2023-08-30T23:13:22;10.20;1.00
27439;DHT22;14887;51.252;7.470;2023-08-30T23:15:48;10.10;1.00
27439;DHT22;14887;51.252;7.470;2023-08-30T23:18:13;10.10;1.00
27439;DHT22;14887;51.252;7.470;2023-08-30T23:20:39;10.10;1.00
27439;DHT22;14887;51.252;7.470;2023-08-30T23:23:05;10.20;1.00
27439;DHT22;14887;51.252;7.470;2023-08-30T23:25:32;10.30;1.00
27439;DHT22;14887;51.252;7.470;2023-08-30T23:27:58;10.20;1.00
27439;DHT22;14887;51.252;7.470;2023-08-30T23:30:26;10.20;1.00
27439;DHT22;14887;51.252;7.470;2023-08-30T23:32:52;10.20;1.00
27439;DHT22;14887;51.252;7.470;2023-08-30T23:35:19;10.20;1.00
27439;DHT22;14887;51.252;7.470;2023-08-30T23:37:45;10.20;1.00
27439;DHT22;14887;51.252;7.470;2023-08-30T23:40:11;10.20;1.00
27439;DHT22;14887;51.252;7.470;2023-08-30T23:42:37;10.20;1.00
27439;DHT22;14887;51.252;7.470;2023-08-30T23:45:03;10.20;1.00
27439;DHT22;14887;51.252;7.470;2023-08-30T23:47:30;10.10;1.00
27439;DHT22;14887;51.252;7.470;2023-08-30T23:49:57;10.20;1.00
27439;DHT22;14887;51.252;7.470;2023-08-30T23:52:23;10.20;1.00
27439;DHT22;14887;51.252;7.470;2023-08-30T23:54:49;10.20;1.00
27439;DHT22;14887;51.252;7.470;2023-08-30T23:57:14;10.20;1.00
27439;DHT22;14887;51.252;7.470;2023-08-30T23:59:40;10.30;1.00
